sensor_id;sensor_type;location;lat;lon;timestamp;pressure;altitude;pressure_sealevel;temperature;humidity
75933;BME280;64803;52.356;5.310;2022-12-16T00:01:52;101405.19;;;-0.80;100.00
75933;BME280;64803;52.356;5.310;2022-12-16T00:04:18;101409.72;;;-0.68;100.00
75933;BME280;64803;52.356;5.310;2022-12-16T00:06:44;101407.94;;;-0.53;100.00
75933;BME280;64803;52.356;5.310;2022-12-16T00:09:10;101390.03;;;-0.20;100.00
75933;BME280;64803;52.356;5.310;2022-12-16T00:11:36;101402.41;;;0.06;100.00
75933;BME280;64803;52.356;5.310;2022-12-16T00:14:02;101405.84;;;-0.06;100.00
75933;BME280;64803;52.356;5.310;2022-12-16T00:16:29;101405.38;;;0.02;100.00
75933;BME280;64803;52.356;5.310;2022-12-16T00:18:55;101395.44;;;0.32;100.00
75933;BME280;64803;52.356;5.310;2022-12-16T00:21:21;101395.72;;;0.41;100.00
75933;BME280;64803;52.356;5.310;2022-12-16T00:23:53;101393.63;;;0.46;100.00
75933;BME280;64803;52.356;5.310;2022-12-16T00:26:19;101392.94;;;0.69;100.00
75933;BME280;64803;52.356;5.310;2022-12-16T00:28:45;101399.91;;;0.70;100.00
75933;BME280;64803;52.356;5.310;2022-12-16T00:31:11;101328.19;;;0.37;100.00
75933;BME280;64803;52.356;5.310;2022-12-16T00:33:37;101405.66;;;0.89;100.00
75933;BME280;64803;52.356;5.310;2022-12-16T00:36:04;101391.41;;;0.92;100.00
75933;BME280;64803;52.356;5.310;2022-12-16T00:38:30;101399.75;;;0.98;100.00
75933;BME280;64803;52.356;5.310;2022-12-16T00:40:56;101404.00;;;1.13;100.00
75933;BME280;64803;52.356;5.310;2022-12-16T00:43:22;101405.28;;;1.21;100.00
75933;BME280;64803;52.356;5.310;2022-12-16T00:45:48;101384.53;;;1.02;100.00
75933;BME280;64803;52.356;5.310;2022-12-16T00:48:15;101344.56;;;0.81;100.00
75933;BME280;64803;52.356;5.310;2022-12-16T00:50:45;101396.63;;;1.19;100.00
75933;BME280;64803;52.356;5.310;2022-12-16T00:53:13;101404.03;;;1.26;100.00
75933;BME280;64803;52.356;5.310;2022-12-16T00:55:39;101414.50;;;1.28;100.00
75933;BME280;64803;52.356;5.310;2022-12-16T00:58:05;101413.34;;;1.32;100.00
75933;BME280;64803;52.356;5.310;2022-12-16T01:00:31;101417.66;;;1.33;100.00
75933;BME280;64803;52.356;5.310;2022-12-16T01:02:57;101414.31;;;1.31;100.00
75933;BME280;64803;52.356;5.310;2022-12-16T01:05:23;101419.47;;;1.32;100.00
75933;BME280;64803;52.356;5.310;2022-12-16T01:07:52;101442.97;;;1.37;100.00
75933;BME280;64803;52.356;5.310;2022-12-16T01:10:19;101437.16;;;1.44;100.00
75933;BME280;64803;52.356;5.310;2022-12-16T01:12:45;101445.50;;;1.51;100.00
75933;BME280;64803;52.356;5.310;2022-12-16T01:15:11;101381.56;;;1.06;100.00
75933;BME280;64803;52.356;5.310;2022-12-16T01:17:39;101467.09;;;1.57;100.00
75933;BME280;64803;52.356;5.310;2022-12-16T01:20:07;101462.66;;;1.58;100.00
75933;BME280;64803;52.356;5.310;2022-12-16T01:22:33;101468.81;;;1.58;100.00
75933;BME280;64803;52.356;5.310;2022-12-16T01:25:00;101474.41;;;1.54;100.00
75933;BME280;64803;52.356;5.310;2022-12-16T01:27:26;101470.06;;;1.53;100.00
75933;BME280;64803;52.356;5.310;2022-12-16T01:29:53;101477.91;;;1.54;100.00
75933;BME280;64803;52.356;5.310;2022-12-16T01:32:19;101471.13;;;1.50;100.00
75933;BME280;64803;52.356;5.310;2022-12-16T01:34:50;101475.59;;;1.50;100.00
75933;BME280;64803;52.356;5.310;2022-12-16T01:37:16;101469.03;;;1.43;100.00
75933;BME280;64803;52.356;5.310;2022-12-16T01:39:42;101485.72;;;1.56;100.00
75933;BME280;64803;52.356;5.310;2022-12-16T01:42:11;101481.53;;;1.53;100.00
75933;BME280;64803;52.356;5.310;2022-12-16T01:44:37;101491.88;;;1.56;100.00
75933;BME280;64803;52.356;5.310;2022-12-16T01:47:04;101497.19;;;1.56;100.00
75933;BME280;64803;52.356;5.310;2022-12-16T01:49:43;101512.72;;;1.61;100.00
75933;BME280;64803;52.356;5.310;2022-12-16T01:52:17;101506.81;;;1.57;100.00
75933;BME280;64803;52.356;5.310;2022-12-16T01:54:49;101512.09;;;1.45;100.00
75933;BME280;64803;52.356;5.310;2022-12-16T01:57:21;101514.81;;;1.43;100.00
75933;BME280;64803;52.356;5.310;2022-12-16T01:59:50;101498.31;;;1.27;100.00
75933;BME280;64803;52.356;5.310;2022-12-16T02:02:19;101519.41;;;1.41;100.00
75933;BME280;64803;52.356;5.310;2022-12-16T02:04:45;101514.28;;;1.38;100.00
75933;BME280;64803;52.356;5.310;2022-12-16T02:07:29;101523.22;;;1.50;100.00
75933;BME280;64803;52.356;5.310;2022-12-16T02:09:56;101518.97;;;1.47;100.00
75933;BME280;64803;52.356;5.310;2022-12-16T02:15:17;101518.75;;;1.38;100.00
75933;BME280;64803;52.356;5.310;2022-12-16T02:18:05;101509.53;;;1.31;100.00
75933;BME280;64803;52.356;5.310;2022-12-16T02:20:48;101527.63;;;1.37;100.00
75933;BME280;64803;52.356;5.310;2022-12-16T02:26:23;101532.69;;;1.40;100.00
75933;BME280;64803;52.356;5.310;2022-12-16T02:31:53;101520.03;;;1.45;100.00
75933;BME280;64803;52.356;5.310;2022-12-16T02:37:23;101536.75;;;1.45;100.00
75933;BME280;64803;52.356;5.310;2022-12-16T02:39:59;101526.78;;;1.36;100.00
75933;BME280;64803;52.356;5.310;2022-12-16T02:42:30;101539.91;;;1.38;100.00
75933;BME280;64803;52.356;5.310;2022-12-16T02:45:02;101538.41;;;1.34;100.00
75933;BME280;64803;52.356;5.310;2022-12-16T02:47:29;101543.06;;;1.30;100.00
75933;BME280;64803;52.356;5.310;2022-12-16T02:49:55;101546.47;;;1.32;100.00
75933;BME280;64803;52.356;5.310;2022-12-16T02:52:24;101529.81;;;1.17;100.00
75933;BME280;64803;52.356;5.310;2022-12-16T02:54:58;101547.81;;;1.25;100.00
75933;BME280;64803;52.356;5.310;2022-12-16T03:00:38;101558.50;;;1.24;100.00
75933;BME280;64803;52.356;5.310;2022-12-16T03:05:46;101563.81;;;1.24;100.00
75933;BME280;64803;52.356;5.310;2022-12-16T03:08:19;101557.00;;;1.20;100.00
75933;BME280;64803;52.356;5.310;2022-12-16T03:10:52;101570.97;;;1.22;100.00
75933;BME280;64803;52.356;5.310;2022-12-16T03:13:21;101576.72;;;1.28;100.00
75933;BME280;64803;52.356;5.310;2022-12-16T03:15:51;101579.47;;;1.27;100.00
75933;BME280;64803;52.356;5.310;2022-12-16T03:18:19;101586.44;;;1.28;100.00
75933;BME280;64803;52.356;5.310;2022-12-16T03:23:17;101473.31;;;0.53;100.00
75933;BME280;64803;52.356;5.310;2022-12-16T03:25:46;101594.88;;;1.20;100.00
75933;BME280;64803;52.356;5.310;2022-12-16T03:31:18;101593.31;;;1.03;100.00
75933;BME280;64803;52.356;5.310;2022-12-16T03:36:36;101584.50;;;0.90;100.00
75933;BME280;64803;52.356;5.310;2022-12-16T03:39:04;101602.16;;;0.90;100.00
75933;BME280;64803;52.356;5.310;2022-12-16T03:41:32;101602.47;;;0.85;100.00
75933;BME280;64803;52.356;5.310;2022-12-16T03:44:00;101610.09;;;0.76;100.00
75933;BME280;64803;52.356;5.310;2022-12-16T03:46:26;101602.84;;;0.65;100.00
75933;BME280;64803;52.356;5.310;2022-12-16T03:48:52;101616.63;;;0.70;100.00
75933;BME280;64803;52.356;5.310;2022-12-16T03:51:19;101618.34;;;0.71;100.00
75933;BME280;64803;52.356;5.310;2022-12-16T03:53:45;101615.47;;;0.88;100.00
75933;BME280;64803;52.356;5.310;2022-12-16T03:56:12;101626.41;;;0.82;99.43
75933;BME280;64803;52.356;5.310;2022-12-16T03:58:38;101642.41;;;0.67;100.00
75933;BME280;64803;52.356;5.310;2022-12-16T04:01:08;101627.41;;;0.67;100.00
75933;BME280;64803;52.356;5.310;2022-12-16T04:03:36;101628.91;;;0.71;100.00
75933;BME280;64803;52.356;5.310;2022-12-16T04:06:02;101631.06;;;0.79;99.93
75933;BME280;64803;52.356;5.310;2022-12-16T04:08:28;101635.97;;;0.85;99.73
75933;BME280;64803;52.356;5.310;2022-12-16T04:10:54;101639.06;;;0.91;99.02
75933;BME280;64803;52.356;5.310;2022-12-16T04:13:39;101623.44;;;0.74;99.38
75933;BME280;64803;52.356;5.310;2022-12-16T04:16:25;101629.81;;;0.84;99.23
75933;BME280;64803;52.356;5.310;2022-12-16T04:19:19;101641.25;;;0.85;99.22
75933;BME280;64803;52.356;5.310;2022-12-16T04:22:11;101635.13;;;0.70;99.36
75933;BME280;64803;52.356;5.310;2022-12-16T04:24:59;101639.97;;;0.64;99.73
75933;BME280;64803;52.356;5.310;2022-12-16T04:27:26;101642.91;;;0.45;100.00
75933;BME280;64803;52.356;5.310;2022-12-16T04:29:54;101637.41;;;0.34;100.00
75933;BME280;64803;52.356;5.310;2022-12-16T04:32:38;101641.28;;;0.29;100.00
75933;BME280;64803;52.356;5.310;2022-12-16T04:35:23;101644.09;;;0.26;100.00
75933;BME280;64803;52.356;5.310;2022-12-16T04:38:07;101641.66;;;0.23;100.00
75933;BME280;64803;52.356;5.310;2022-12-16T04:40:52;101647.19;;;0.18;100.00
75933;BME280;64803;52.356;5.310;2022-12-16T04:43:36;101651.44;;;0.07;100.00
75933;BME280;64803;52.356;5.310;2022-12-16T04:46:21;101644.88;;;-0.16;100.00
75933;BME280;64803;52.356;5.310;2022-12-16T04:49:05;101652.94;;;-0.33;100.00
75933;BME280;64803;52.356;5.310;2022-12-16T04:51:50;101658.22;;;-0.49;100.00
75933;BME280;64803;52.356;5.310;2022-12-16T04:54:34;101664.72;;;-0.54;100.00
75933;BME280;64803;52.356;5.310;2022-12-16T04:57:18;101659.22;;;-0.65;100.00
75933;BME280;64803;52.356;5.310;2022-12-16T05:00:03;101661.91;;;-0.51;100.00
75933;BME280;64803;52.356;5.310;2022-12-16T05:02:49;101662.69;;;-0.49;100.00
75933;BME280;64803;52.356;5.310;2022-12-16T05:05:34;101656.16;;;-0.58;100.00
75933;BME280;64803;52.356;5.310;2022-12-16T05:08:32;101667.88;;;-0.63;100.00
75933;BME280;64803;52.356;5.310;2022-12-16T05:11:17;101666.88;;;-0.76;100.00
75933;BME280;64803;52.356;5.310;2022-12-16T05:14:01;101676.66;;;-0.78;100.00
75933;BME280;64803;52.356;5.310;2022-12-16T05:16:46;101669.19;;;-0.86;100.00
75933;BME280;64803;52.356;5.310;2022-12-16T05:19:30;101670.09;;;-1.02;100.00
75933;BME280;64803;52.356;5.310;2022-12-16T05:22:15;101672.53;;;-1.31;100.00
75933;BME280;64803;52.356;5.310;2022-12-16T05:25:00;101677.59;;;-1.59;100.00
75933;BME280;64803;52.356;5.310;2022-12-16T05:27:49;101681.69;;;-1.70;100.00
75933;BME280;64803;52.356;5.310;2022-12-16T05:30:34;101680.56;;;-1.82;100.00
75933;BME280;64803;52.356;5.310;2022-12-16T05:33:18;101673.53;;;-1.98;100.00
75933;BME280;64803;52.356;5.310;2022-12-16T05:36:03;101694.81;;;-2.03;100.00
75933;BME280;64803;52.356;5.310;2022-12-16T05:38:48;101648.78;;;-2.28;100.00
75933;BME280;64803;52.356;5.310;2022-12-16T05:41:32;101697.53;;;-2.04;100.00
75933;BME280;64803;52.356;5.310;2022-12-16T05:44:17;101701.59;;;-2.16;100.00
75933;BME280;64803;52.356;5.310;2022-12-16T05:47:01;101692.16;;;-2.37;100.00
75933;BME280;64803;52.356;5.310;2022-12-16T05:49:46;101707.09;;;-2.38;100.00
75933;BME280;64803;52.356;5.310;2022-12-16T05:52:30;101717.06;;;-2.44;100.00
75933;BME280;64803;52.356;5.310;2022-12-16T05:55:14;101712.03;;;-2.49;100.00
75933;BME280;64803;52.356;5.310;2022-12-16T05:58:00;101720.78;;;-2.48;100.00
75933;BME280;64803;52.356;5.310;2022-12-16T06:00:44;101714.06;;;-2.37;100.00
75933;BME280;64803;52.356;5.310;2022-12-16T06:03:29;101724.81;;;-2.41;100.00
75933;BME280;64803;52.356;5.310;2022-12-16T06:06:14;101725.09;;;-2.47;100.00
75933;BME280;64803;52.356;5.310;2022-12-16T06:08:58;101725.06;;;-2.64;100.00
75933;BME280;64803;52.356;5.310;2022-12-16T06:11:42;101732.31;;;-2.69;100.00
75933;BME280;64803;52.356;5.310;2022-12-16T06:14:27;101734.69;;;-2.46;100.00
75933;BME280;64803;52.356;5.310;2022-12-16T06:17:11;101727.97;;;-2.35;100.00
75933;BME280;64803;52.356;5.310;2022-12-16T06:19:56;101741.13;;;-2.35;100.00
75933;BME280;64803;52.356;5.310;2022-12-16T06:22:40;101729.66;;;-2.34;100.00
75933;BME280;64803;52.356;5.310;2022-12-16T06:25:25;101701.59;;;-2.50;100.00
75933;BME280;64803;52.356;5.310;2022-12-16T06:28:10;101743.25;;;-2.24;100.00
75933;BME280;64803;52.356;5.310;2022-12-16T06:30:54;101745.09;;;-2.26;100.00
75933;BME280;64803;52.356;5.310;2022-12-16T06:33:38;101746.63;;;-2.39;100.00
75933;BME280;64803;52.356;5.310;2022-12-16T06:36:23;101767.19;;;-2.30;100.00
75933;BME280;64803;52.356;5.310;2022-12-16T06:39:07;101770.31;;;-2.22;100.00
75933;BME280;64803;52.356;5.310;2022-12-16T06:41:51;101768.69;;;-2.07;100.00
75933;BME280;64803;52.356;5.310;2022-12-16T06:44:36;101765.94;;;-1.87;100.00
75933;BME280;64803;52.356;5.310;2022-12-16T06:47:20;101727.53;;;-1.91;100.00
75933;BME280;64803;52.356;5.310;2022-12-16T06:50:05;101770.66;;;-1.60;100.00
75933;BME280;64803;52.356;5.310;2022-12-16T06:52:49;101766.19;;;-1.75;100.00
75933;BME280;64803;52.356;5.310;2022-12-16T06:55:33;101769.91;;;-1.96;100.00
75933;BME280;64803;52.356;5.310;2022-12-16T06:58:18;101788.16;;;-1.93;100.00
75933;BME280;64803;52.356;5.310;2022-12-16T07:01:02;101789.63;;;-1.87;100.00
75933;BME280;64803;52.356;5.310;2022-12-16T07:03:47;101787.16;;;-1.90;100.00
75933;BME280;64803;52.356;5.310;2022-12-16T07:06:31;101787.63;;;-1.99;100.00
75933;BME280;64803;52.356;5.310;2022-12-16T07:09:15;101796.56;;;-2.03;100.00
75933;BME280;64803;52.356;5.310;2022-12-16T07:12:00;101797.19;;;-1.98;100.00
75933;BME280;64803;52.356;5.310;2022-12-16T07:14:44;101791.16;;;-2.00;100.00
75933;BME280;64803;52.356;5.310;2022-12-16T07:17:28;101785.66;;;-2.13;100.00
75933;BME280;64803;52.356;5.310;2022-12-16T07:20:13;101803.56;;;-2.21;100.00
75933;BME280;64803;52.356;5.310;2022-12-16T07:22:57;101801.72;;;-2.19;100.00
75933;BME280;64803;52.356;5.310;2022-12-16T07:25:41;101762.69;;;-2.45;100.00
75933;BME280;64803;52.356;5.310;2022-12-16T07:28:45;101809.09;;;-2.08;100.00
75933;BME280;64803;52.356;5.310;2022-12-16T07:31:30;101825.16;;;-1.96;100.00
75933;BME280;64803;52.356;5.310;2022-12-16T07:34:14;101823.84;;;-1.87;100.00
75933;BME280;64803;52.356;5.310;2022-12-16T07:36:59;101812.47;;;-1.71;100.00
75933;BME280;64803;52.356;5.310;2022-12-16T07:39:44;101819.28;;;-1.50;100.00
75933;BME280;64803;52.356;5.310;2022-12-16T07:42:28;101824.56;;;-1.33;100.00
75933;BME280;64803;52.356;5.310;2022-12-16T07:45:13;101825.94;;;-1.08;100.00
75933;BME280;64803;52.356;5.310;2022-12-16T07:47:58;101828.53;;;-0.91;100.00
75933;BME280;64803;52.356;5.310;2022-12-16T07:50:42;101827.09;;;-0.81;100.00
75933;BME280;64803;52.356;5.310;2022-12-16T07:53:27;101829.56;;;-0.78;100.00
75933;BME280;64803;52.356;5.310;2022-12-16T07:56:12;101842.13;;;-0.66;100.00
75933;BME280;64803;52.356;5.310;2022-12-16T07:58:57;101838.78;;;-0.70;100.00
75933;BME280;64803;52.356;5.310;2022-12-16T08:01:41;101845.09;;;-0.57;100.00
75933;BME280;64803;52.356;5.310;2022-12-16T08:04:26;101848.09;;;-0.47;100.00
75933;BME280;64803;52.356;5.310;2022-12-16T08:07:10;101842.72;;;-0.46;100.00
75933;BME280;64803;52.356;5.310;2022-12-16T08:09:55;101850.84;;;-0.33;100.00
75933;BME280;64803;52.356;5.310;2022-12-16T08:13:00;101865.13;;;-0.22;99.95
75933;BME280;64803;52.356;5.310;2022-12-16T08:15:45;101873.56;;;-0.15;99.97
75933;BME280;64803;52.356;5.310;2022-12-16T08:18:30;101873.03;;;-0.06;99.17
75933;BME280;64803;52.356;5.310;2022-12-16T08:21:14;101877.22;;;-0.02;98.39
75933;BME280;64803;52.356;5.310;2022-12-16T08:23:59;101881.56;;;-0.01;97.82
75933;BME280;64803;52.356;5.310;2022-12-16T08:26:44;101886.06;;;-0.03;97.61
75933;BME280;64803;52.356;5.310;2022-12-16T08:29:29;101844.44;;;-0.29;96.80
75933;BME280;64803;52.356;5.310;2022-12-16T08:32:14;101888.56;;;0.00;97.17
75933;BME280;64803;52.356;5.310;2022-12-16T08:35:00;101882.41;;;-0.01;96.85
75933;BME280;64803;52.356;5.310;2022-12-16T08:37:46;101897.47;;;0.13;97.03
75933;BME280;64803;52.356;5.310;2022-12-16T08:40:30;101884.00;;;0.02;96.86
75933;BME280;64803;52.356;5.310;2022-12-16T08:43:15;101896.72;;;0.11;96.62
75933;BME280;64803;52.356;5.310;2022-12-16T08:46:00;101825.19;;;-0.31;96.33
75933;BME280;64803;52.356;5.310;2022-12-16T08:48:45;101889.22;;;0.19;96.49
75933;BME280;64803;52.356;5.310;2022-12-16T08:51:29;101922.41;;;0.39;96.54
75933;BME280;64803;52.356;5.310;2022-12-16T08:54:14;101908.78;;;0.46;96.00
75933;BME280;64803;52.356;5.310;2022-12-16T08:56:59;101913.03;;;0.49;95.40
75933;BME280;64803;52.356;5.310;2022-12-16T08:59:44;101926.97;;;0.66;95.64
75933;BME280;64803;52.356;5.310;2022-12-16T09:02:28;101844.41;;;0.18;94.78
75933;BME280;64803;52.356;5.310;2022-12-16T09:05:12;101911.47;;;0.60;94.78
75933;BME280;64803;52.356;5.310;2022-12-16T09:08:01;101924.16;;;0.69;94.51
75933;BME280;64803;52.356;5.310;2022-12-16T09:10:46;101943.50;;;0.85;93.82
75933;BME280;64803;52.356;5.310;2022-12-16T09:13:30;101925.38;;;0.93;93.92
75933;BME280;64803;52.356;5.310;2022-12-16T09:16:16;101927.56;;;1.01;93.54
75933;BME280;64803;52.356;5.310;2022-12-16T09:19:01;101933.69;;;1.01;92.72
75933;BME280;64803;52.356;5.310;2022-12-16T09:21:45;101938.63;;;1.07;93.10
75933;BME280;64803;52.356;5.310;2022-12-16T09:24:30;101934.69;;;1.14;92.33
75933;BME280;64803;52.356;5.310;2022-12-16T09:27:14;101944.03;;;1.20;92.55
75933;BME280;64803;52.356;5.310;2022-12-16T09:30:02;101953.88;;;1.18;92.83
75933;BME280;64803;52.356;5.310;2022-12-16T09:32:46;101954.00;;;1.31;91.16
75933;BME280;64803;52.356;5.310;2022-12-16T09:35:31;101949.75;;;1.42;90.56
75933;BME280;64803;52.356;5.310;2022-12-16T09:38:15;101962.88;;;1.44;90.63
75933;BME280;64803;52.356;5.310;2022-12-16T09:41:19;101966.19;;;1.47;90.72
75933;BME280;64803;52.356;5.310;2022-12-16T09:50:23;101980.00;;;1.66;89.27
75933;BME280;64803;52.356;5.310;2022-12-16T09:53:18;101986.16;;;1.81;88.69
75933;BME280;64803;52.356;5.310;2022-12-16T09:56:06;101935.84;;;1.53;88.69
75933;BME280;64803;52.356;5.310;2022-12-16T09:58:57;101901.44;;;1.25;89.32
75933;BME280;64803;52.356;5.310;2022-12-16T10:01:43;101959.88;;;1.64;89.95
75933;BME280;64803;52.356;5.310;2022-12-16T10:04:27;101987.28;;;1.77;89.88
75933;BME280;64803;52.356;5.310;2022-12-16T10:07:22;101944.72;;;1.52;90.39
75933;BME280;64803;52.356;5.310;2022-12-16T10:10:33;101991.16;;;1.85;89.63
75933;BME280;64803;52.356;5.310;2022-12-16T10:13:36;101994.47;;;1.89;90.78
75933;BME280;64803;52.356;5.310;2022-12-16T10:22:36;101993.72;;;1.87;91.73
75933;BME280;64803;52.356;5.310;2022-12-16T10:25:27;102001.50;;;1.90;92.15
75933;BME280;64803;52.356;5.310;2022-12-16T10:28:26;102003.38;;;1.88;91.62
75933;BME280;64803;52.356;5.310;2022-12-16T10:31:16;102004.31;;;1.87;92.34
75933;BME280;64803;52.356;5.310;2022-12-16T10:34:04;101916.75;;;1.34;92.24
75933;BME280;64803;52.356;5.310;2022-12-16T10:40:27;101984.38;;;1.67;92.96
75933;BME280;64803;52.356;5.310;2022-12-16T10:43:20;101896.97;;;1.11;93.31
75933;BME280;64803;52.356;5.310;2022-12-16T10:46:12;102002.63;;;1.72;93.52
75933;BME280;64803;52.356;5.310;2022-12-16T10:49:00;102013.19;;;1.72;93.85
75933;BME280;64803;52.356;5.310;2022-12-16T10:51:45;102007.91;;;1.72;93.90
75933;BME280;64803;52.356;5.310;2022-12-16T10:54:38;102005.81;;;1.77;94.49
75933;BME280;64803;52.356;5.310;2022-12-16T10:57:36;102008.47;;;1.77;94.27
75933;BME280;64803;52.356;5.310;2022-12-16T11:00:39;102004.50;;;1.84;94.85
75933;BME280;64803;52.356;5.310;2022-12-16T11:03:27;102006.03;;;1.88;94.69
75933;BME280;64803;52.356;5.310;2022-12-16T11:06:20;102003.75;;;1.96;95.20
75933;BME280;64803;52.356;5.310;2022-12-16T11:12:26;102011.50;;;2.13;94.06
75933;BME280;64803;52.356;5.310;2022-12-16T11:15:26;102000.91;;;2.13;94.43
75933;BME280;64803;52.356;5.310;2022-12-16T11:18:14;102021.72;;;2.19;96.04
75933;BME280;64803;52.356;5.310;2022-12-16T11:21:14;102019.84;;;2.21;94.74
75933;BME280;64803;52.356;5.310;2022-12-16T11:26:55;102024.47;;;2.17;94.17
75933;BME280;64803;52.356;5.310;2022-12-16T11:30:30;102016.44;;;2.19;95.53
75933;BME280;64803;52.356;5.310;2022-12-16T11:33:16;102021.81;;;2.17;95.10
75933;BME280;64803;52.356;5.310;2022-12-16T11:36:26;102025.13;;;2.21;94.45
75933;BME280;64803;52.356;5.310;2022-12-16T11:39:18;101960.06;;;1.89;94.35
75933;BME280;64803;52.356;5.310;2022-12-16T11:42:05;102024.34;;;2.33;95.15
75933;BME280;64803;52.356;5.310;2022-12-16T11:44:53;102027.25;;;2.43;94.12
75933;BME280;64803;52.356;5.310;2022-12-16T11:47:45;102029.75;;;2.46;93.74
75933;BME280;64803;52.356;5.310;2022-12-16T11:50:54;102037.00;;;2.56;94.46
75933;BME280;64803;52.356;5.310;2022-12-16T11:53:46;102033.78;;;2.51;94.04
75933;BME280;64803;52.356;5.310;2022-12-16T11:56:36;101934.34;;;1.91;94.33
75933;BME280;64803;52.356;5.310;2022-12-16T11:59:43;102038.50;;;2.60;93.85
75933;BME280;64803;52.356;5.310;2022-12-16T12:02:36;102029.31;;;2.66;93.93
75933;BME280;64803;52.356;5.310;2022-12-16T12:05:32;102041.03;;;2.62;93.68
75933;BME280;64803;52.356;5.310;2022-12-16T12:11:19;102047.63;;;2.56;93.24
75933;BME280;64803;52.356;5.310;2022-12-16T12:14:14;102046.47;;;2.46;94.79
75933;BME280;64803;52.356;5.310;2022-12-16T12:22:44;101999.47;;;2.21;92.77
75933;BME280;64803;52.356;5.310;2022-12-16T12:32:00;102046.09;;;2.52;94.65
75933;BME280;64803;52.356;5.310;2022-12-16T12:35:00;102049.50;;;2.54;93.95
75933;BME280;64803;52.356;5.310;2022-12-16T12:37:56;102052.91;;;2.56;94.03
75933;BME280;64803;52.356;5.310;2022-12-16T12:41:10;102058.41;;;2.53;94.13
75933;BME280;64803;52.356;5.310;2022-12-16T12:47:04;102059.34;;;2.52;93.80
75933;BME280;64803;52.356;5.310;2022-12-16T12:56:20;102062.22;;;2.49;93.10
75933;BME280;64803;52.356;5.310;2022-12-16T12:59:15;102054.16;;;2.37;93.91
75933;BME280;64803;52.356;5.310;2022-12-16T13:02:04;102066.97;;;2.30;94.40
75933;BME280;64803;52.356;5.310;2022-12-16T13:04:53;102065.44;;;2.26;95.10
75933;BME280;64803;52.356;5.310;2022-12-16T13:07:38;102078.13;;;2.21;95.40
75933;BME280;64803;52.356;5.310;2022-12-16T13:10:36;102076.03;;;2.26;94.50
75933;BME280;64803;52.356;5.310;2022-12-16T13:16:10;102078.69;;;2.40;94.80
75933;BME280;64803;52.356;5.310;2022-12-16T13:19:38;102080.38;;;2.41;94.11
75933;BME280;64803;52.356;5.310;2022-12-16T13:28:28;102081.13;;;2.57;94.09
75933;BME280;64803;52.356;5.310;2022-12-16T13:31:14;102053.50;;;2.47;93.52
75933;BME280;64803;52.356;5.310;2022-12-16T13:34:06;102086.22;;;2.60;92.25
75933;BME280;64803;52.356;5.310;2022-12-16T13:37:05;102091.16;;;2.66;93.25
75933;BME280;64803;52.356;5.310;2022-12-16T13:40:15;102083.97;;;2.68;93.26
75933;BME280;64803;52.356;5.310;2022-12-16T13:43:01;102091.63;;;2.59;92.84
75933;BME280;64803;52.356;5.310;2022-12-16T13:48:48;102096.47;;;2.38;93.00
75933;BME280;64803;52.356;5.310;2022-12-16T13:54:48;102102.75;;;2.23;93.60
75933;BME280;64803;52.356;5.310;2022-12-16T13:57:40;102109.72;;;2.24;93.52
75933;BME280;64803;52.356;5.310;2022-12-16T14:00:27;102113.13;;;2.26;93.83
75933;BME280;64803;52.356;5.310;2022-12-16T14:03:26;102099.31;;;2.21;93.32
75933;BME280;64803;52.356;5.310;2022-12-16T14:06:18;102116.72;;;2.39;92.40
75933;BME280;64803;52.356;5.310;2022-12-16T14:09:05;102112.09;;;2.43;92.30
75933;BME280;64803;52.356;5.310;2022-12-16T14:12:00;102109.94;;;2.49;91.82
75933;BME280;64803;52.356;5.310;2022-12-16T14:15:03;102126.19;;;2.43;92.24
75933;BME280;64803;52.356;5.310;2022-12-16T14:17:59;102135.00;;;2.44;91.94
75933;BME280;64803;52.356;5.310;2022-12-16T14:20:53;102137.88;;;2.41;91.81
75933;BME280;64803;52.356;5.310;2022-12-16T14:26:27;102131.78;;;2.24;92.54
75933;BME280;64803;52.356;5.310;2022-12-16T14:29:19;102148.06;;;2.33;92.50
75933;BME280;64803;52.356;5.310;2022-12-16T14:32:31;102154.31;;;2.32;92.57
75933;BME280;64803;52.356;5.310;2022-12-16T14:35:22;102135.66;;;2.19;93.29
75933;BME280;64803;52.356;5.310;2022-12-16T14:38:28;102162.53;;;2.27;94.02
75933;BME280;64803;52.356;5.310;2022-12-16T14:41:23;102166.34;;;2.23;94.08
75933;BME280;64803;52.356;5.310;2022-12-16T14:44:20;102165.66;;;2.19;93.66
75933;BME280;64803;52.356;5.310;2022-12-16T14:47:15;102177.47;;;2.14;95.22
75933;BME280;64803;52.356;5.310;2022-12-16T14:50:00;102005.84;;;1.03;94.71
75933;BME280;64803;52.356;5.310;2022-12-16T14:52:45;102179.91;;;2.03;94.79
75933;BME280;64803;52.356;5.310;2022-12-16T14:55:32;102186.41;;;1.97;94.83
75933;BME280;64803;52.356;5.310;2022-12-16T14:58:22;102186.69;;;1.93;94.95
75933;BME280;64803;52.356;5.310;2022-12-16T15:01:20;102187.03;;;1.87;95.51
75933;BME280;64803;52.356;5.310;2022-12-16T15:04:17;102191.84;;;1.80;96.04
75933;BME280;64803;52.356;5.310;2022-12-16T15:07:02;102194.50;;;1.80;97.26
75933;BME280;64803;52.356;5.310;2022-12-16T15:09:50;102205.47;;;1.74;96.15
75933;BME280;64803;52.356;5.310;2022-12-16T15:12:42;102206.81;;;1.66;96.80
75933;BME280;64803;52.356;5.310;2022-12-16T15:15:33;102214.63;;;1.53;97.77
75933;BME280;64803;52.356;5.310;2022-12-16T15:18:23;102215.22;;;1.43;98.04
75933;BME280;64803;52.356;5.310;2022-12-16T15:21:09;102217.97;;;1.41;98.45
75933;BME280;64803;52.356;5.310;2022-12-16T15:23:54;102143.47;;;0.86;98.00
75933;BME280;64803;52.356;5.310;2022-12-16T15:26:39;102218.97;;;1.23;99.15
75933;BME280;64803;52.356;5.310;2022-12-16T15:35:31;102242.00;;;1.05;99.08
75933;BME280;64803;52.356;5.310;2022-12-16T15:40:59;102243.16;;;0.84;100.00
75933;BME280;64803;52.356;5.310;2022-12-16T15:43:44;102239.75;;;0.82;100.00
75933;BME280;64803;52.356;5.310;2022-12-16T15:46:30;102244.88;;;0.85;100.00
75933;BME280;64803;52.356;5.310;2022-12-16T15:51:59;102253.22;;;0.78;100.00
75933;BME280;64803;52.356;5.310;2022-12-16T15:54:55;102263.25;;;0.71;100.00
75933;BME280;64803;52.356;5.310;2022-12-16T15:57:54;102261.88;;;0.64;100.00